createdAt,value
2023-04-15T00:01:19.811Z,99841.09
2023-04-15T00:03:48.920Z,99835.72
2023-04-15T00:06:17.592Z,99831.56
2023-04-15T00:08:46.045Z,99815.22
2023-04-15T00:11:15.855Z,99824.41
2023-04-15T00:13:46.031Z,99808.28
2023-04-15T00:16:14.380Z,99818.38
2023-04-15T00:18:42.877Z,99809.97
2023-04-15T00:21:11.191Z,99825.78
2023-04-15T00:23:39.691Z,99827.78
2023-04-15T00:26:08.033Z,99819.75
2023-04-15T00:28:36.409Z,99822.09
2023-04-15T00:31:06.639Z,99823.88
2023-04-15T00:33:36.740Z,99826.25
2023-04-15T00:36:05.931Z,99833.88
2023-04-15T00:38:34.923Z,99830.88
2023-04-15T00:41:04.521Z,99842.19
2023-04-15T00:43:32.924Z,99846.13
2023-04-15T00:46:04.103Z,99849.34
2023-04-15T00:48:34.135Z,99848.44
2023-04-15T00:51:02.488Z,99848.44
2023-04-15T00:53:30.864Z,99849.69
2023-04-15T00:55:59.329Z,99840.84
2023-04-15T00:58:29.325Z,99838.59
2023-04-15T01:00:58.354Z,99845.56
2023-04-15T01:03:26.852Z,99841.88
2023-04-15T01:05:58.833Z,99841.19
2023-04-15T01:08:29.195Z,99845.13
2023-04-15T01:10:58.435Z,99849.38
2023-04-15T01:13:27.173Z,99842.66
2023-04-15T01:15:56.265Z,99842.78
2023-04-15T01:18:25.651Z,99837.53
2023-04-15T01:20:54.272Z,99843.81
2023-04-15T01:23:24.316Z,99836.84
2023-04-15T01:25:55.266Z,99834.41
2023-04-15T01:28:23.764Z,99836.41
2023-04-15T01:30:52.058Z,99836.19
2023-04-15T01:33:20.448Z,99837.31
2023-04-15T01:35:48.781Z,99844.72
2023-04-15T01:38:17.311Z,99832.81
2023-04-15T01:40:46.254Z,99837.09
2023-04-15T01:43:16.140Z,99838.66
2023-04-15T01:45:45.095Z,99837.09
2023-04-15T01:48:13.443Z,99835.41
2023-04-15T01:50:42.215Z,99831.94
2023-04-15T01:53:11.178Z,99829.94
2023-04-15T01:55:39.666Z,99822.53
2023-04-15T01:58:08.366Z,99815.56
2023-04-15T02:00:38.278Z,99825.84
2023-04-15T02:03:06.761Z,99828.53
2023-04-15T02:05:35.165Z,99834.84
2023-04-15T02:08:03.961Z,99823.63
2023-04-15T02:10:32.290Z,99827.53
2023-04-15T02:13:00.752Z,99824.50
2023-04-15T02:15:29.148Z,99832.91
2023-04-15T02:18:00.977Z,99829.19
2023-04-15T02:20:30.814Z,99828.88
2023-04-15T02:22:59.272Z,99833.22
2023-04-15T02:25:27.682Z,99829.50
2023-04-15T02:27:58.790Z,99825.03
2023-04-15T02:30:27.375Z,99825.81
2023-04-15T02:32:56.303Z,99829.34
2023-04-15T02:35:26.177Z,99837.50
2023-04-15T02:37:54.563Z,99830.69
2023-04-15T02:40:23.623Z,99832.25
2023-04-15T02:42:51.936Z,99834.28
2023-04-15T02:45:23.845Z,99841.22
2023-04-15T02:47:52.258Z,99834.28
2023-04-15T02:50:21.099Z,99837.63
2023-04-15T02:52:50.846Z,99830.22
2023-04-15T02:55:19.461Z,99840.19
2023-04-15T02:57:47.757Z,99832.59
2023-04-15T03:00:16.345Z,99837.63
2023-04-15T03:02:46.194Z,99847.72
2023-04-15T03:05:15.547Z,99848.03
2023-04-15T03:07:43.884Z,99850.16
2023-04-15T03:10:13.609Z,99839.72
2023-04-15T03:12:42.069Z,99849.38
2023-04-15T03:15:11.777Z,99843.22
2023-04-15T03:17:40.137Z,99835.16
2023-04-15T03:20:09.727Z,99839.53
2023-04-15T03:22:38.245Z,99838.72
2023-04-15T03:25:07.828Z,99844.38
2023-04-15T03:27:37.542Z,99841.81
2023-04-15T03:30:06.754Z,99844.38
2023-04-15T03:32:35.304Z,99831.25
2023-04-15T03:35:03.666Z,99837.97
2023-04-15T03:37:31.952Z,99832.00
2023-04-15T03:40:00.283Z,99838.03
2023-04-15T03:42:28.697Z,99831.25
2023-04-15T03:44:58.574Z,99837.19
2023-04-15T03:47:26.948Z,99845.97
2023-04-15T03:49:55.258Z,99840.19
2023-04-15T03:52:23.584Z,99847.28
2023-04-15T03:54:52.480Z,99839.03
2023-04-15T03:57:20.845Z,99839.44
2023-04-15T03:59:49.155Z,99838.00
2023-04-15T04:02:19.214Z,99845.06
2023-04-15T04:04:47.718Z,99848.84
2023-04-15T04:07:17.791Z,99845.50
2023-04-15T04:09:47.354Z,99856.38
2023-04-15T04:12:16.002Z,99849.53
2023-04-15T04:14:44.560Z,99845.22
2023-04-15T04:17:13.020Z,99857.66
2023-04-15T04:19:42.929Z,99862.38
2023-04-15T04:22:11.439Z,99864.25
2023-04-15T04:24:39.900Z,99863.75
2023-04-15T04:27:08.200Z,99867.56
2023-04-15T04:29:36.487Z,99871.75
2023-04-15T04:32:04.886Z,99879.38
2023-04-15T04:34:33.858Z,99868.69
2023-04-15T04:37:03.575Z,99870.06
2023-04-15T04:39:31.882Z,99866.47
2023-04-15T04:42:00.205Z,99873.31
2023-04-15T04:44:28.556Z,99874.09
2023-04-15T04:46:56.864Z,99870.28
2023-04-15T04:49:25.120Z,99868.38
2023-04-15T04:51:53.969Z,99878.25
2023-04-15T04:54:24.094Z,99878.78
2023-04-15T04:56:52.509Z,99876.22
2023-04-15T04:59:20.857Z,99884.66
2023-04-15T05:01:49.577Z,99875.09
2023-04-15T05:04:17.915Z,99878.59
2023-04-15T05:06:46.321Z,99883.31
2023-04-15T05:09:15.026Z,99883.06
2023-04-15T05:11:44.728Z,99881.03
2023-04-15T05:14:13.092Z,99876.25
2023-04-15T05:16:41.653Z,99879.47
2023-04-15T05:19:10.194Z,99875.91
2023-04-15T05:21:39.526Z,99874.66
2023-04-15T05:24:08.410Z,99874.88
2023-04-15T05:26:37.080Z,99875.44
2023-04-15T05:29:07.920Z,99884.09
2023-04-15T05:31:36.456Z,99876.44
2023-04-15T05:34:05.413Z,99877.34
2023-04-15T05:36:33.710Z,99871.63
2023-04-15T05:39:02.445Z,99876.31
2023-04-15T05:41:31.026Z,99874.09
2023-04-15T05:43:59.330Z,99879.72
2023-04-15T05:46:29.232Z,99875.88
2023-04-15T05:48:57.529Z,99870.94
2023-04-15T05:51:26.059Z,99877.69
2023-04-15T05:53:54.461Z,99879.69
2023-04-15T05:56:22.769Z,99882.38
2023-04-15T05:58:53.679Z,99881.50
2023-04-15T06:01:22.358Z,99884.44
2023-04-15T06:03:52.253Z,99919.53
2023-04-15T06:06:21.094Z,99929.06
2023-04-15T06:08:49.431Z,99919.97
2023-04-15T06:11:17.797Z,99934.53
2023-04-15T06:13:46.369Z,99934.19
2023-04-15T06:16:14.838Z,99942.41
2023-04-15T06:18:43.143Z,99938.56
2023-04-15T06:21:13.075Z,99947.22
2023-04-15T06:23:42.345Z,99954.81
2023-04-15T06:26:10.899Z,99957.75
2023-04-15T06:28:39.339Z,99971.63
2023-04-15T06:31:07.819Z,99963.41
2023-04-15T06:33:36.196Z,99976.59
2023-04-15T06:36:04.638Z,99970.75
2023-04-15T06:38:35.601Z,99967.84
2023-04-15T06:41:04.857Z,99970.72
2023-04-15T06:43:33.290Z,99966.63
2023-04-15T06:46:01.653Z,99954.78
2023-04-15T06:48:30.007Z,99952.53
2023-04-15T06:50:58.989Z,99947.66
2023-04-15T06:53:28.088Z,99944.28
2023-04-15T06:55:57.990Z,99948.56
2023-04-15T06:58:26.651Z,99963.38
2023-04-15T07:00:55.088Z,99949.25
2023-04-15T07:03:23.450Z,99944.53
2023-04-15T07:05:51.736Z,99955.75
2023-04-15T07:08:20.697Z,99963.38
2023-04-15T07:10:49.191Z,99961.47
2023-04-15T07:13:18.966Z,99968.56
2023-04-15T07:15:47.233Z,99983.72
2023-04-15T07:18:15.647Z,99986.75
2023-04-15T07:20:44.680Z,99990.13
2023-04-15T07:23:13.027Z,99991.47
2023-04-15T07:25:41.424Z,99991.00
2023-04-15T07:28:09.911Z,99991.66
2023-04-15T07:30:40.000Z,99989.56
2023-04-15T07:33:08.627Z,99995.84
2023-04-15T07:35:37.025Z,100001.34
2023-04-15T07:38:05.596Z,99998.03
2023-04-15T07:40:34.606Z,99996.16
2023-04-15T07:43:03.574Z,99995.81
2023-04-15T07:45:31.890Z,99997.81
2023-04-15T07:48:02.068Z,99999.03
2023-04-15T07:50:30.832Z,99997.13
2023-04-15T07:52:59.101Z,100007.13
2023-04-15T07:55:28.298Z,100005.59
2023-04-15T07:57:56.821Z,99995.59
2023-04-15T08:00:25.578Z,100001.13
2023-04-15T08:02:54.447Z,100003.75
2023-04-15T08:05:24.954Z,100014.78
2023-04-15T08:07:53.351Z,99999.91
2023-04-15T08:10:21.866Z,100000.13
2023-04-15T08:12:51.067Z,99995.50
2023-04-15T08:15:19.763Z,100000.72
2023-04-15T08:17:48.104Z,100003.03
2023-04-15T08:20:16.876Z,100009.41
2023-04-15T08:22:47.966Z,100011.78
2023-04-15T08:25:16.760Z,99996.72
2023-04-15T08:27:45.189Z,99998.00
2023-04-15T08:30:14.724Z,99999.59
2023-04-15T08:32:43.953Z,99986.25
2023-04-15T08:35:12.287Z,99982.47
2023-04-15T08:37:40.666Z,99990.81
2023-04-15T08:40:12.232Z,99994.94
2023-04-15T08:42:45.770Z,99993.53
2023-04-15T08:45:14.109Z,100002.13
2023-04-15T08:47:43.684Z,99984.00
2023-04-15T08:50:13.463Z,99972.19
2023-04-15T08:52:42.354Z,99984.44
2023-04-15T08:55:15.467Z,99995.66
2023-04-15T08:57:43.888Z,99996.19
2023-04-15T09:00:15.290Z,99990.56
2023-04-15T09:02:44.841Z,99993.13
2023-04-15T09:05:13.376Z,100025.00
2023-04-15T09:07:41.781Z,100029.56
2023-04-15T09:10:12.750Z,100010.91
2023-04-15T09:12:41.572Z,100009.78
2023-04-15T09:15:13.114Z,99997.69
2023-04-15T09:17:45.950Z,100011.78
2023-04-15T09:20:18.917Z,100019.28
2023-04-15T09:22:50.096Z,100010.66
2023-04-15T09:25:34.873Z,100007.63
2023-04-15T09:28:04.284Z,100008.06
2023-04-15T09:30:32.760Z,100010.34
2023-04-15T09:33:03.172Z,100004.88
2023-04-15T09:35:31.714Z,100001.28
2023-04-15T09:38:05.522Z,100001.28
2023-04-15T09:40:36.640Z,99999.19
2023-04-15T09:43:06.303Z,100002.53
2023-04-15T09:45:35.279Z,99996.44
2023-04-15T09:48:18.357Z,99996.44
2023-04-15T09:50:46.785Z,99994.94
2023-04-15T09:53:19.382Z,100002.38
2023-04-15T09:55:51.717Z,100006.88
2023-04-15T09:58:21.005Z,100014.72
2023-04-15T10:00:50.839Z,100022.56
2023-04-15T10:03:23.219Z,100015.66
2023-04-15T10:05:53.706Z,100010.88
2023-04-15T10:08:24.169Z,100010.25
2023-04-15T10:10:54.784Z,100012.47
2023-04-15T10:13:24.990Z,100019.97
2023-04-15T10:15:58.994Z,100012.66
2023-04-15T10:18:29.024Z,100004.88
2023-04-15T10:20:57.759Z,100006.28
2023-04-15T10:23:27.593Z,100015.22
2023-04-15T10:25:59.213Z,100010.47
2023-04-15T10:28:28.208Z,100013.13
2023-04-15T10:30:57.132Z,100014.53
2023-04-15T10:33:27.220Z,100016.28
2023-04-15T10:35:58.288Z,100014.78
2023-04-15T10:38:40.171Z,100010.34
2023-04-15T10:41:19.488Z,100007.06
2023-04-15T10:43:55.322Z,100002.13
2023-04-15T10:46:25.783Z,100004.00
2023-04-15T10:48:55.417Z,100008.78
2023-04-15T10:51:33.001Z,99999.03
2023-04-15T10:54:02.345Z,99994.34
2023-04-15T10:56:32.663Z,99985.41
2023-04-15T10:59:02.715Z,99992.25
2023-04-15T11:01:53.382Z,99995.94
2023-04-15T11:04:56.479Z,99992.78
2023-04-15T11:07:42.602Z,99995.72
2023-04-15T11:10:53.028Z,100001.66
2023-04-15T11:13:29.454Z,99996.16
2023-04-15T11:16:02.854Z,100000.91
2023-04-15T11:18:35.822Z,100000.66
2023-04-15T11:21:06.862Z,100003.47
2023-04-15T11:23:38.579Z,100006.66
2023-04-15T11:26:09.929Z,100009.38
2023-04-15T11:28:42.128Z,100006.84
2023-04-15T11:31:12.354Z,100016.59
2023-04-15T11:33:56.625Z,100013.53
2023-04-15T11:36:27.979Z,100011.06
2023-04-15T11:38:57.314Z,100011.94
2023-04-15T11:41:26.174Z,100019.03
2023-04-15T11:43:56.162Z,100013.56
2023-04-15T11:46:31.044Z,100014.84
2023-04-15T11:49:00.289Z,100015.63
2023-04-15T11:51:34.044Z,100018.16
2023-04-15T11:54:02.884Z,100019.75
2023-04-15T11:56:32.159Z,100016.50
2023-04-15T11:59:02.165Z,100020.78
2023-04-15T12:01:35.304Z,100015.28
2023-04-15T12:04:04.622Z,100013.28
2023-04-15T12:06:37.368Z,100010.81
2023-04-15T12:09:12.492Z,100015.53
2023-04-15T12:11:46.247Z,100004.47
2023-04-15T12:14:26.394Z,100011.00
2023-04-15T12:16:58.382Z,100020.69
2023-04-15T12:19:28.777Z,100022.50
2023-04-15T12:22:01.412Z,100008.56
2023-04-15T12:24:32.480Z,100009.31
2023-04-15T12:27:04.559Z,100007.78
2023-04-15T12:29:36.737Z,100015.09
2023-04-15T12:32:09.979Z,100008.41
2023-04-15T12:34:40.329Z,100009.41
2023-04-15T12:37:10.875Z,100015.53
2023-04-15T12:39:41.293Z,100009.69
2023-04-15T12:42:10.432Z,100015.19
2023-04-15T12:44:41.218Z,100008.16
2023-04-15T12:47:11.083Z,100012.03
2023-04-15T12:49:39.923Z,100013.66
2023-04-15T12:52:08.956Z,100009.19
2023-04-15T12:54:37.329Z,100018.66
2023-04-15T12:57:07.432Z,100013.03
2023-04-15T12:59:36.360Z,100002.13
2023-04-15T13:02:06.489Z,100008.13
2023-04-15T13:04:35.072Z,100006.38
2023-04-15T13:07:03.859Z,100014.22
2023-04-15T13:09:32.570Z,100017.13
2023-04-15T13:12:03.194Z,100008.22
2023-04-15T13:14:31.725Z,100014.50
2023-04-15T13:17:01.624Z,100019.47
2023-04-15T13:19:31.600Z,100017.72
2023-04-15T13:21:59.971Z,100023.63
2023-04-15T13:24:28.432Z,100019.22
2023-04-15T13:26:59.302Z,100020.41
2023-04-15T13:29:27.987Z,100021.63
2023-04-15T13:31:57.037Z,100017.34
2023-04-15T13:34:25.720Z,100021.44
2023-04-15T13:36:55.900Z,100025.28
2023-04-15T13:39:24.546Z,100011.78
2023-04-15T13:41:53.215Z,100020.91
2023-04-15T13:44:22.301Z,100024.16
2023-04-15T13:46:50.851Z,100029.75
2023-04-15T13:49:19.435Z,100024.91
2023-04-15T13:51:48.185Z,100018.06
2023-04-15T13:54:18.153Z,100028.47
2023-04-15T13:56:47.221Z,100026.53
2023-04-15T13:59:15.842Z,100024.34
2023-04-15T14:01:45.197Z,100028.84
2023-04-15T14:04:15.278Z,100038.69
2023-04-15T14:06:43.723Z,100031.31
2023-04-15T14:09:12.244Z,100032.84
2023-04-15T14:11:42.133Z,100036.66
2023-04-15T14:14:10.594Z,100044.56
2023-04-15T14:16:39.543Z,100032.91
2023-04-15T14:19:08.657Z,100040.91
2023-04-15T14:21:37.758Z,100038.75
2023-04-15T14:24:07.576Z,100045.09
2023-04-15T14:26:36.297Z,100051.22
2023-04-15T14:29:06.347Z,100051.06
2023-04-15T14:31:34.789Z,100055.34
2023-04-15T14:34:03.539Z,100062.56
2023-04-15T14:36:32.608Z,100060.28
2023-04-15T14:39:01.169Z,100064.44
2023-04-15T14:41:29.549Z,100059.84
2023-04-15T14:43:57.973Z,100063.78
2023-04-15T14:46:28.219Z,100067.28
2023-04-15T14:48:57.154Z,100066.63
2023-04-15T14:51:26.652Z,100061.31
2023-04-15T14:53:55.760Z,100065.88
2023-04-15T14:56:24.240Z,100063.41
2023-04-15T14:58:53.317Z,100059.34
2023-04-15T15:01:22.097Z,100070.19
2023-04-15T15:03:52.403Z,100065.69
2023-04-15T15:06:22.761Z,100067.69
2023-04-15T15:08:51.380Z,100067.81
2023-04-15T15:11:19.660Z,100071.97
2023-04-15T15:13:48.156Z,100071.59
2023-04-15T15:16:16.598Z,100072.72
2023-04-15T15:18:45.603Z,100086.31
2023-04-15T15:21:15.932Z,100073.88
2023-04-15T15:23:44.544Z,100081.94
2023-04-15T15:26:13.351Z,100076.00
2023-04-15T15:28:42.313Z,100079.78
2023-04-15T15:31:10.988Z,100088.91
2023-04-15T15:33:39.408Z,100092.06
2023-04-15T15:36:08.174Z,100081.16
2023-04-15T15:38:39.066Z,100089.34
2023-04-15T15:41:07.398Z,100080.59
2023-04-15T15:43:35.748Z,100081.38
2023-04-15T15:46:05.211Z,100078.00
2023-04-15T15:48:33.642Z,100084.06
2023-04-15T15:51:04.283Z,100082.81
2023-04-15T15:53:33.177Z,100079.88
2023-04-15T15:56:03.872Z,100085.59
2023-04-15T15:58:32.552Z,100094.13
2023-04-15T16:01:01.930Z,100082.75
2023-04-15T16:03:30.867Z,100082.63
2023-04-15T16:05:59.447Z,100085.56
2023-04-15T16:08:28.006Z,100085.94
2023-04-15T16:10:56.446Z,100078.84
2023-04-15T16:13:26.270Z,100091.91
2023-04-15T16:15:54.776Z,100099.41
2023-04-15T16:18:23.090Z,100101.97
2023-04-15T16:20:51.421Z,100091.53
2023-04-15T16:23:20.737Z,100094.53
2023-04-15T16:25:49.263Z,100090.59
2023-04-15T16:28:26.309Z,100089.16
2023-04-15T16:30:57.279Z,100079.06
2023-04-15T16:33:25.670Z,100083.06
2023-04-15T16:35:54.234Z,100091.47
2023-04-15T16:38:22.710Z,100097.47
2023-04-15T16:40:51.635Z,100105.59
2023-04-15T16:43:20.176Z,100100.88
2023-04-15T16:45:51.575Z,100103.91
2023-04-15T16:48:22.197Z,100108.00
2023-04-15T16:50:50.641Z,100103.28
2023-04-15T16:53:19.274Z,100112.41
2023-04-15T16:55:47.704Z,100110.94
2023-04-15T16:58:16.472Z,100110.34
2023-04-15T17:00:44.855Z,100109.25
2023-04-15T17:03:13.298Z,100112.09
2023-04-15T17:05:43.550Z,100109.72
2023-04-15T17:08:11.914Z,100098.81
2023-04-15T17:10:40.455Z,100113.66
2023-04-15T17:13:08.855Z,100118.19
2023-04-15T17:15:37.207Z,100139.28
2023-04-15T17:18:06.802Z,100126.34
2023-04-15T17:20:35.817Z,100139.31
2023-04-15T17:23:05.628Z,100150.75
2023-04-15T17:25:33.955Z,100146.47
2023-04-15T17:28:02.717Z,100159.44
2023-04-15T17:30:31.287Z,100158.50
2023-04-15T17:32:59.867Z,100154.84
2023-04-15T17:35:28.520Z,100159.91
2023-04-15T17:37:58.036Z,100163.81
2023-04-15T17:40:27.797Z,100172.03
2023-04-15T17:42:56.109Z,100159.72
2023-04-15T17:45:24.571Z,100165.88
2023-04-15T17:47:53.127Z,100159.09
2023-04-15T17:50:21.791Z,100157.72
2023-04-15T17:52:50.424Z,100170.19
2023-04-15T17:55:18.982Z,100164.63
2023-04-15T17:57:49.262Z,100153.13
2023-04-15T18:00:18.597Z,100168.59
2023-04-15T18:02:48.750Z,100166.69
2023-04-15T18:05:18.899Z,100175.72
2023-04-15T18:07:47.449Z,100167.69
2023-04-15T18:10:15.926Z,100178.88
2023-04-15T18:12:44.255Z,100178.75
2023-04-15T18:15:14.737Z,100192.81
2023-04-15T18:17:43.197Z,100195.63
2023-04-15T18:20:12.919Z,100192.94
2023-04-15T18:22:41.304Z,100194.53
2023-04-15T18:25:11.405Z,100191.84
2023-04-15T18:27:40.618Z,100188.38
2023-04-15T18:30:10.174Z,100198.63
2023-04-15T18:32:40.524Z,100192.16
2023-04-15T18:35:09.889Z,100192.63
2023-04-15T18:37:38.408Z,100187.69
2023-04-15T18:40:09.046Z,100198.31
2023-04-15T18:42:37.470Z,100195.75
2023-04-15T18:45:06.429Z,100192.31
2023-04-15T18:47:34.932Z,100195.81
2023-04-15T18:50:04.940Z,100189.63
2023-04-15T18:52:33.916Z,100188.72
2023-04-15T18:55:03.421Z,100185.06
2023-04-15T18:57:36.364Z,100188.06
2023-04-15T19:00:07.735Z,100195.81
2023-04-15T19:02:36.160Z,100179.22
2023-04-15T19:05:07.018Z,100172.28
2023-04-15T19:07:36.153Z,100175.13
2023-04-15T19:10:05.005Z,100169.59
2023-04-15T19:12:33.592Z,100172.25
2023-04-15T19:15:01.939Z,100168.13
2023-04-15T19:17:30.481Z,100181.25
2023-04-15T19:19:58.861Z,100189.31
2023-04-15T19:22:30.207Z,100192.63
2023-04-15T19:24:58.640Z,100200.38
2023-04-15T19:27:27.085Z,100185.22
2023-04-15T19:29:55.396Z,100179.38
2023-04-15T19:32:23.812Z,100195.03
2023-04-15T19:34:52.452Z,100190.75
2023-04-15T19:37:20.926Z,100194.84
2023-04-15T19:39:51.204Z,100195.66
2023-04-15T19:42:19.571Z,100186.97
2023-04-15T19:44:48.270Z,100181.44
2023-04-15T19:47:16.903Z,100178.44
2023-04-15T19:49:45.350Z,100182.69
2023-04-15T19:52:13.929Z,100185.84
2023-04-15T19:54:42.478Z,100197.06
2023-04-15T19:57:12.258Z,100194.84
2023-04-15T19:59:40.848Z,100193.59
2023-04-15T20:02:09.833Z,100187.91
2023-04-15T20:04:38.294Z,100179.53
2023-04-15T20:07:06.692Z,100181.13
2023-04-15T20:09:35.416Z,100184.44
2023-04-15T20:12:46.227Z,100189.00
2023-04-15T20:14:53.785Z,100181.75
2023-04-15T20:17:22.141Z,100182.22
2023-04-15T20:19:50.521Z,100186.47
2023-04-15T20:22:18.912Z,100179.31
2023-04-15T20:24:47.473Z,100192.63
2023-04-15T20:27:15.817Z,100202.09
2023-04-15T20:29:44.258Z,100213.16
2023-04-15T20:32:14.111Z,100213.00
2023-04-15T20:34:42.705Z,100212.19
2023-04-15T20:37:12.542Z,100216.94
2023-04-15T20:39:42.637Z,100217.38
2023-04-15T20:42:11.345Z,100219.44
2023-04-15T20:44:39.873Z,100213.78
2023-04-15T20:47:08.590Z,100213.91
2023-04-15T20:49:39.653Z,100204.22
2023-04-15T20:52:09.165Z,100206.00
2023-04-15T20:54:37.515Z,100202.97
2023-04-15T20:57:08.019Z,100206.75
2023-04-15T20:59:36.430Z,100204.06
2023-04-15T21:02:04.994Z,100210.69
2023-04-15T21:04:33.420Z,100204.19
2023-04-15T21:07:03.199Z,100204.03
2023-04-15T21:09:31.564Z,100214.03
2023-04-15T21:12:01.891Z,100219.72
2023-04-15T21:14:31.087Z,100221.59
2023-04-15T21:16:59.586Z,100218.13
2023-04-15T21:19:28.028Z,100216.88
2023-04-15T21:21:56.327Z,100216.88
2023-04-15T21:24:26.387Z,100203.19
2023-04-15T21:26:54.800Z,100210.63
2023-04-15T21:29:23.123Z,100208.72
2023-04-15T21:31:52.280Z,100202.97
2023-04-15T21:34:20.801Z,100201.38
2023-04-15T21:36:49.159Z,100201.78
2023-04-15T21:39:17.550Z,100197.75
2023-04-15T21:41:47.430Z,100206.94
2023-04-15T21:44:16.156Z,100214.59
2023-04-15T21:46:46.024Z,100217.28
2023-04-15T21:49:14.774Z,100217.13
2023-04-15T21:51:43.227Z,100213.47
2023-04-15T21:54:11.594Z,100223.69
2023-04-15T21:56:39.929Z,100224.34
2023-04-15T21:59:09.659Z,100231.00
2023-04-15T22:01:38.245Z,100235.16
2023-04-15T22:04:07.650Z,100234.38
2023-04-15T22:06:36.201Z,100231.25
2023-04-15T22:09:04.783Z,100236.94
2023-04-15T22:11:33.214Z,100235.66
2023-04-15T22:14:01.657Z,100241.53
2023-04-15T22:16:31.590Z,100247.41
2023-04-15T22:19:00.362Z,100246.91
2023-04-15T22:21:28.697Z,100244.09
2023-04-15T22:24:39.090Z,100248.97
2023-04-15T22:26:45.331Z,100248.66
2023-04-15T22:29:13.749Z,100250.72
2023-04-15T22:31:43.888Z,100243.44
2023-04-15T22:34:14.716Z,100252.41
2023-04-15T22:36:43.115Z,100253.22
2023-04-15T22:39:11.508Z,100252.13
2023-04-15T22:41:39.964Z,100246.13
2023-04-15T22:44:08.317Z,100253.56
2023-04-15T22:46:36.731Z,100244.41
2023-04-15T22:49:09.309Z,100248.19
2023-04-15T22:51:38.529Z,100245.81
2023-04-15T22:54:06.833Z,100251.97
2023-04-15T22:56:35.225Z,100250.88
2023-04-15T22:59:03.524Z,100246.13
2023-04-15T23:01:32.451Z,100249.47
2023-04-15T23:04:06.473Z,100248.38
2023-04-15T23:06:39.308Z,100248.69
2023-04-15T23:09:08.281Z,100259.44
2023-04-15T23:11:36.924Z,100251.53
2023-04-15T23:14:05.532Z,100255.66
2023-04-15T23:16:34.084Z,100257.38
2023-04-15T23:19:02.635Z,100254.53
2023-04-15T23:21:31.527Z,100253.91
2023-04-15T23:24:02.009Z,100260.53
2023-04-15T23:26:31.266Z,100261.78
2023-04-15T23:28:59.624Z,100262.41
2023-04-15T23:31:28.137Z,100264.78
2023-04-15T23:33:56.520Z,100269.66
2023-04-15T23:36:25.020Z,100261.16
2023-04-15T23:38:53.569Z,100256.41
2023-04-15T23:41:23.589Z,100262.25
2023-04-15T23:43:52.572Z,100260.00
2023-04-15T23:46:20.962Z,100261.59
2023-04-15T23:48:49.851Z,100269.19
2023-04-15T23:51:18.491Z,100261.44
2023-04-15T23:53:47.214Z,100261.94
2023-04-15T23:56:16.044Z,100267.47
2023-04-15T23:58:46.284Z,100265.25
